sensor_id;sensor_type;location;lat;lon;timestamp;P1;durP1;ratioP1;P2;durP2;ratioP2
12163;SDS011;6145;50.192;10.064;2022-07-06T00:01:41;2.00;;;1.60;;
12163;SDS011;6145;50.192;10.064;2022-07-06T00:04:09;2.17;;;1.97;;
12163;SDS011;6145;50.192;10.064;2022-07-06T00:06:36;2.40;;;1.80;;
12163;SDS011;6145;50.192;10.064;2022-07-06T00:09:04;1.53;;;1.43;;
12163;SDS011;6145;50.192;10.064;2022-07-06T00:11:31;1.80;;;1.70;;
12163;SDS011;6145;50.192;10.064;2022-07-06T00:13:58;1.80;;;1.70;;
12163;SDS011;6145;50.192;10.064;2022-07-06T00:16:25;1.97;;;1.80;;
12163;SDS011;6145;50.192;10.064;2022-07-06T00:18:53;2.10;;;1.90;;
12163;SDS011;6145;50.192;10.064;2022-07-06T00:21:21;1.77;;;1.60;;
12163;SDS011;6145;50.192;10.064;2022-07-06T00:23:48;1.87;;;1.70;;
12163;SDS011;6145;50.192;10.064;2022-07-06T00:26:16;1.80;;;1.70;;
12163;SDS011;6145;50.192;10.064;2022-07-06T00:28:43;1.80;;;1.70;;
12163;SDS011;6145;50.192;10.064;2022-07-06T00:31:10;2.27;;;1.53;;
12163;SDS011;6145;50.192;10.064;2022-07-06T00:33:37;2.07;;;1.87;;
12163;SDS011;6145;50.192;10.064;2022-07-06T00:36:04;1.73;;;1.60;;
12163;SDS011;6145;50.192;10.064;2022-07-06T00:38:32;1.83;;;1.67;;
12163;SDS011;6145;50.192;10.064;2022-07-06T00:40:59;1.80;;;1.70;;
12163;SDS011;6145;50.192;10.064;2022-07-06T00:43:25;1.90;;;1.80;;
12163;SDS011;6145;50.192;10.064;2022-07-06T00:45:52;2.17;;;1.97;;
12163;SDS011;6145;50.192;10.064;2022-07-06T00:48:19;2.77;;;1.93;;
12163;SDS011;6145;50.192;10.064;2022-07-06T00:50:46;2.00;;;1.80;;
12163;SDS011;6145;50.192;10.064;2022-07-06T00:53:12;1.90;;;1.80;;
12163;SDS011;6145;50.192;10.064;2022-07-06T00:55:41;1.80;;;1.70;;
12163;SDS011;6145;50.192;10.064;2022-07-06T00:58:08;1.80;;;1.70;;
12163;SDS011;6145;50.192;10.064;2022-07-06T01:00:36;2.17;;;2.00;;
12163;SDS011;6145;50.192;10.064;2022-07-06T01:03:03;1.90;;;1.80;;
12163;SDS011;6145;50.192;10.064;2022-07-06T01:05:30;1.87;;;1.77;;
12163;SDS011;6145;50.192;10.064;2022-07-06T01:07:57;2.00;;;1.90;;
12163;SDS011;6145;50.192;10.064;2022-07-06T01:10:26;1.70;;;1.60;;
12163;SDS011;6145;50.192;10.064;2022-07-06T01:12:54;1.80;;;1.70;;
12163;SDS011;6145;50.192;10.064;2022-07-06T01:15:23;2.03;;;1.80;;
12163;SDS011;6145;50.192;10.064;2022-07-06T01:17:50;2.10;;;1.93;;
12163;SDS011;6145;50.192;10.064;2022-07-06T01:20:19;1.90;;;1.80;;
12163;SDS011;6145;50.192;10.064;2022-07-06T01:22:47;1.80;;;1.70;;
12163;SDS011;6145;50.192;10.064;2022-07-06T01:25:15;2.27;;;1.93;;
12163;SDS011;6145;50.192;10.064;2022-07-06T01:27:42;2.10;;;1.77;;
12163;SDS011;6145;50.192;10.064;2022-07-06T01:30:10;1.77;;;1.67;;
12163;SDS011;6145;50.192;10.064;2022-07-06T01:32:39;1.87;;;1.70;;
12163;SDS011;6145;50.192;10.064;2022-07-06T01:35:08;1.97;;;1.80;;
12163;SDS011;6145;50.192;10.064;2022-07-06T01:37:37;1.80;;;1.70;;
12163;SDS011;6145;50.192;10.064;2022-07-06T01:40:04;1.77;;;1.67;;
12163;SDS011;6145;50.192;10.064;2022-07-06T01:42:33;2.40;;;1.90;;
12163;SDS011;6145;50.192;10.064;2022-07-06T01:45:00;1.80;;;1.70;;
12163;SDS011;6145;50.192;10.064;2022-07-06T01:47:27;1.80;;;1.70;;
12163;SDS011;6145;50.192;10.064;2022-07-06T01:49:57;1.80;;;1.70;;
12163;SDS011;6145;50.192;10.064;2022-07-06T01:52:24;1.70;;;1.60;;
12163;SDS011;6145;50.192;10.064;2022-07-06T01:54:52;1.70;;;1.60;;
12163;SDS011;6145;50.192;10.064;2022-07-06T01:57:19;1.60;;;1.50;;
12163;SDS011;6145;50.192;10.064;2022-07-06T01:59:46;1.93;;;1.73;;
12163;SDS011;6145;50.192;10.064;2022-07-06T02:02:12;1.93;;;1.83;;
12163;SDS011;6145;50.192;10.064;2022-07-06T02:04:40;1.70;;;1.60;;
12163;SDS011;6145;50.192;10.064;2022-07-06T02:07:07;1.70;;;1.60;;
12163;SDS011;6145;50.192;10.064;2022-07-06T02:09:33;1.80;;;1.70;;
12163;SDS011;6145;50.192;10.064;2022-07-06T02:12:02;1.97;;;1.80;;
12163;SDS011;6145;50.192;10.064;2022-07-06T02:14:29;1.80;;;1.70;;
12163;SDS011;6145;50.192;10.064;2022-07-06T02:16:55;1.70;;;1.60;;
12163;SDS011;6145;50.192;10.064;2022-07-06T02:19:22;1.70;;;1.60;;
12163;SDS011;6145;50.192;10.064;2022-07-06T02:21:49;1.97;;;1.77;;
12163;SDS011;6145;50.192;10.064;2022-07-06T02:24:16;1.73;;;1.63;;
12163;SDS011;6145;50.192;10.064;2022-07-06T02:26:42;1.67;;;1.57;;
12163;SDS011;6145;50.192;10.064;2022-07-06T02:29:10;1.80;;;1.70;;
12163;SDS011;6145;50.192;10.064;2022-07-06T02:31:37;2.07;;;1.80;;
12163;SDS011;6145;50.192;10.064;2022-07-06T02:34:04;2.00;;;1.80;;
12163;SDS011;6145;50.192;10.064;2022-07-06T02:36:31;1.80;;;1.70;;
12163;SDS011;6145;50.192;10.064;2022-07-06T02:38:58;1.77;;;1.67;;
12163;SDS011;6145;50.192;10.064;2022-07-06T02:41:24;2.33;;;1.80;;
12163;SDS011;6145;50.192;10.064;2022-07-06T02:43:51;1.93;;;1.83;;
12163;SDS011;6145;50.192;10.064;2022-07-06T02:46:19;2.13;;;1.83;;
12163;SDS011;6145;50.192;10.064;2022-07-06T02:48:46;2.10;;;1.70;;
12163;SDS011;6145;50.192;10.064;2022-07-06T02:51:13;1.87;;;1.70;;
12163;SDS011;6145;50.192;10.064;2022-07-06T02:53:39;1.77;;;1.67;;
12163;SDS011;6145;50.192;10.064;2022-07-06T02:56:06;1.90;;;1.70;;
12163;SDS011;6145;50.192;10.064;2022-07-06T02:58:33;2.00;;;1.90;;
12163;SDS011;6145;50.192;10.064;2022-07-06T03:01:00;1.70;;;1.60;;
12163;SDS011;6145;50.192;10.064;2022-07-06T03:03:28;2.20;;;1.80;;
12163;SDS011;6145;50.192;10.064;2022-07-06T03:05:55;1.70;;;1.60;;
12163;SDS011;6145;50.192;10.064;2022-07-06T03:08:21;3.03;;;1.67;;
12163;SDS011;6145;50.192;10.064;2022-07-06T03:10:48;2.27;;;1.80;;
12163;SDS011;6145;50.192;10.064;2022-07-06T03:13:15;1.90;;;1.70;;
12163;SDS011;6145;50.192;10.064;2022-07-06T03:15:42;1.90;;;1.80;;
12163;SDS011;6145;50.192;10.064;2022-07-06T03:18:08;1.70;;;1.60;;
12163;SDS011;6145;50.192;10.064;2022-07-06T03:20:36;2.27;;;2.07;;
12163;SDS011;6145;50.192;10.064;2022-07-06T03:23:03;1.97;;;1.77;;
12163;SDS011;6145;50.192;10.064;2022-07-06T03:25:30;1.70;;;1.60;;
12163;SDS011;6145;50.192;10.064;2022-07-06T03:27:57;1.80;;;1.70;;
12163;SDS011;6145;50.192;10.064;2022-07-06T03:30:24;2.07;;;1.97;;
12163;SDS011;6145;50.192;10.064;2022-07-06T03:32:51;1.80;;;1.70;;
12163;SDS011;6145;50.192;10.064;2022-07-06T03:35:17;2.20;;;2.00;;
12163;SDS011;6145;50.192;10.064;2022-07-06T03:37:46;2.17;;;1.80;;
12163;SDS011;6145;50.192;10.064;2022-07-06T03:40:12;1.93;;;1.83;;
12163;SDS011;6145;50.192;10.064;2022-07-06T03:42:40;2.30;;;1.73;;
12163;SDS011;6145;50.192;10.064;2022-07-06T03:45:07;1.60;;;1.50;;
12163;SDS011;6145;50.192;10.064;2022-07-06T03:47:35;1.80;;;1.70;;
12163;SDS011;6145;50.192;10.064;2022-07-06T03:50:02;1.67;;;1.57;;
12163;SDS011;6145;50.192;10.064;2022-07-06T03:52:28;1.70;;;1.60;;
12163;SDS011;6145;50.192;10.064;2022-07-06T03:54:57;1.80;;;1.70;;
12163;SDS011;6145;50.192;10.064;2022-07-06T03:57:23;1.80;;;1.70;;
12163;SDS011;6145;50.192;10.064;2022-07-06T03:59:50;2.37;;;1.90;;
12163;SDS011;6145;50.192;10.064;2022-07-06T04:02:17;1.77;;;1.67;;
12163;SDS011;6145;50.192;10.064;2022-07-06T04:04:44;1.93;;;1.83;;
12163;SDS011;6145;50.192;10.064;2022-07-06T04:07:11;2.00;;;1.90;;
12163;SDS011;6145;50.192;10.064;2022-07-06T04:09:38;1.93;;;1.83;;
12163;SDS011;6145;50.192;10.064;2022-07-06T04:12:07;1.70;;;1.60;;
12163;SDS011;6145;50.192;10.064;2022-07-06T04:14:34;2.70;;;2.03;;
12163;SDS011;6145;50.192;10.064;2022-07-06T04:17:01;1.80;;;1.70;;
12163;SDS011;6145;50.192;10.064;2022-07-06T04:19:48;1.80;;;1.70;;
12163;SDS011;6145;50.192;10.064;2022-07-06T04:22:15;2.00;;;1.90;;
12163;SDS011;6145;50.192;10.064;2022-07-06T04:24:42;1.90;;;1.80;;
12163;SDS011;6145;50.192;10.064;2022-07-06T04:27:10;1.70;;;1.60;;
12163;SDS011;6145;50.192;10.064;2022-07-06T04:29:37;2.33;;;2.00;;
12163;SDS011;6145;50.192;10.064;2022-07-06T04:32:04;1.90;;;1.80;;
12163;SDS011;6145;50.192;10.064;2022-07-06T04:34:31;2.20;;;2.03;;
12163;SDS011;6145;50.192;10.064;2022-07-06T04:36:58;2.00;;;1.90;;
12163;SDS011;6145;50.192;10.064;2022-07-06T04:39:25;1.90;;;1.80;;
12163;SDS011;6145;50.192;10.064;2022-07-06T04:41:52;1.80;;;1.70;;
12163;SDS011;6145;50.192;10.064;2022-07-06T04:44:20;2.00;;;1.90;;
12163;SDS011;6145;50.192;10.064;2022-07-06T04:46:47;2.00;;;1.90;;
12163;SDS011;6145;50.192;10.064;2022-07-06T04:49:14;1.90;;;1.80;;
12163;SDS011;6145;50.192;10.064;2022-07-06T04:51:40;2.23;;;1.83;;
12163;SDS011;6145;50.192;10.064;2022-07-06T04:54:07;2.23;;;2.10;;
12163;SDS011;6145;50.192;10.064;2022-07-06T04:56:34;1.83;;;1.73;;
12163;SDS011;6145;50.192;10.064;2022-07-06T04:59:01;2.47;;;2.27;;
12163;SDS011;6145;50.192;10.064;2022-07-06T05:01:29;3.10;;;2.20;;
12163;SDS011;6145;50.192;10.064;2022-07-06T05:03:56;2.07;;;1.97;;
12163;SDS011;6145;50.192;10.064;2022-07-06T05:06:22;2.40;;;2.20;;
12163;SDS011;6145;50.192;10.064;2022-07-06T05:08:49;2.20;;;2.00;;
12163;SDS011;6145;50.192;10.064;2022-07-06T05:11:16;2.17;;;1.97;;
12163;SDS011;6145;50.192;10.064;2022-07-06T05:13:43;2.00;;;1.80;;
12163;SDS011;6145;50.192;10.064;2022-07-06T05:16:09;1.90;;;1.80;;
12163;SDS011;6145;50.192;10.064;2022-07-06T05:18:38;2.20;;;2.00;;
12163;SDS011;6145;50.192;10.064;2022-07-06T05:21:04;2.20;;;2.00;;
12163;SDS011;6145;50.192;10.064;2022-07-06T05:23:31;2.27;;;2.17;;
12163;SDS011;6145;50.192;10.064;2022-07-06T05:25:58;2.93;;;1.97;;
12163;SDS011;6145;50.192;10.064;2022-07-06T05:28:25;2.63;;;1.90;;
12163;SDS011;6145;50.192;10.064;2022-07-06T05:30:51;2.00;;;1.90;;
12163;SDS011;6145;50.192;10.064;2022-07-06T05:33:18;2.10;;;2.00;;
12163;SDS011;6145;50.192;10.064;2022-07-06T05:35:46;2.03;;;1.93;;
12163;SDS011;6145;50.192;10.064;2022-07-06T05:38:13;2.07;;;1.87;;
12163;SDS011;6145;50.192;10.064;2022-07-06T05:40:40;2.93;;;2.10;;
12163;SDS011;6145;50.192;10.064;2022-07-06T05:43:07;2.00;;;1.90;;
12163;SDS011;6145;50.192;10.064;2022-07-06T05:45:33;2.60;;;2.17;;
12163;SDS011;6145;50.192;10.064;2022-07-06T05:48:00;2.50;;;2.30;;
12163;SDS011;6145;50.192;10.064;2022-07-06T05:50:46;2.20;;;2.00;;
12163;SDS011;6145;50.192;10.064;2022-07-06T05:53:13;2.57;;;2.30;;
12163;SDS011;6145;50.192;10.064;2022-07-06T05:55:40;2.43;;;2.23;;
12163;SDS011;6145;50.192;10.064;2022-07-06T05:58:06;2.50;;;2.30;;
12163;SDS011;6145;50.192;10.064;2022-07-06T06:00:33;2.07;;;1.90;;
12163;SDS011;6145;50.192;10.064;2022-07-06T06:03:00;2.27;;;2.13;;
12163;SDS011;6145;50.192;10.064;2022-07-06T06:05:27;2.53;;;2.27;;
12163;SDS011;6145;50.192;10.064;2022-07-06T06:07:55;2.20;;;1.93;;
12163;SDS011;6145;50.192;10.064;2022-07-06T06:10:21;2.30;;;2.10;;
12163;SDS011;6145;50.192;10.064;2022-07-06T06:12:48;2.63;;;2.07;;
12163;SDS011;6145;50.192;10.064;2022-07-06T06:15:15;1.87;;;1.70;;
12163;SDS011;6145;50.192;10.064;2022-07-06T06:17:42;1.97;;;1.60;;
12163;SDS011;6145;50.192;10.064;2022-07-06T06:20:10;2.27;;;1.70;;
12163;SDS011;6145;50.192;10.064;2022-07-06T06:22:45;2.37;;;1.70;;
12163;SDS011;6145;50.192;10.064;2022-07-06T06:25:14;2.03;;;1.50;;
12163;SDS011;6145;50.192;10.064;2022-07-06T06:27:41;1.70;;;1.50;;
12163;SDS011;6145;50.192;10.064;2022-07-06T06:30:09;2.70;;;1.50;;
12163;SDS011;6145;50.192;10.064;2022-07-06T06:32:37;1.80;;;1.30;;
12163;SDS011;6145;50.192;10.064;2022-07-06T06:35:04;1.60;;;1.50;;
12163;SDS011;6145;50.192;10.064;2022-07-06T06:37:31;2.07;;;1.50;;
12163;SDS011;6145;50.192;10.064;2022-07-06T06:39:59;1.77;;;1.50;;
12163;SDS011;6145;50.192;10.064;2022-07-06T06:42:27;1.40;;;1.30;;
12163;SDS011;6145;50.192;10.064;2022-07-06T06:44:54;1.67;;;1.50;;
12163;SDS011;6145;50.192;10.064;2022-07-06T06:47:20;1.60;;;1.50;;
12163;SDS011;6145;50.192;10.064;2022-07-06T06:49:47;2.35;;;1.55;;
12163;SDS011;6145;50.192;10.064;2022-07-06T06:52:14;2.53;;;1.75;;
12163;SDS011;6145;50.192;10.064;2022-07-06T06:54:41;1.42;;;1.30;;
12163;SDS011;6145;50.192;10.064;2022-07-06T06:57:07;2.33;;;1.55;;
12163;SDS011;6145;50.192;10.064;2022-07-06T06:59:36;2.55;;;1.80;;
12163;SDS011;6145;50.192;10.064;2022-07-06T07:02:03;2.00;;;1.58;;
12163;SDS011;6145;50.192;10.064;2022-07-06T07:04:29;2.67;;;1.67;;
12163;SDS011;6145;50.192;10.064;2022-07-06T07:06:56;3.08;;;1.50;;
12163;SDS011;6145;50.192;10.064;2022-07-06T07:09:23;1.48;;;1.38;;
12163;SDS011;6145;50.192;10.064;2022-07-06T07:11:50;1.90;;;1.52;;
12163;SDS011;6145;50.192;10.064;2022-07-06T07:14:17;2.05;;;1.50;;
12163;SDS011;6145;50.192;10.064;2022-07-06T07:16:45;1.83;;;1.40;;
12163;SDS011;6145;50.192;10.064;2022-07-06T07:19:11;3.15;;;1.60;;
12163;SDS011;6145;50.192;10.064;2022-07-06T07:21:38;1.65;;;1.52;;
12163;SDS011;6145;50.192;10.064;2022-07-06T07:24:05;2.20;;;1.50;;
12163;SDS011;6145;50.192;10.064;2022-07-06T07:26:33;2.08;;;1.50;;
12163;SDS011;6145;50.192;10.064;2022-07-06T07:29:00;1.58;;;1.48;;
12163;SDS011;6145;50.192;10.064;2022-07-06T07:31:27;1.65;;;1.40;;
12163;SDS011;6145;50.192;10.064;2022-07-06T07:33:55;1.65;;;1.55;;
12163;SDS011;6145;50.192;10.064;2022-07-06T07:36:23;1.60;;;1.30;;
12163;SDS011;6145;50.192;10.064;2022-07-06T07:38:50;1.50;;;1.40;;
12163;SDS011;6145;50.192;10.064;2022-07-06T07:41:17;1.52;;;1.30;;
12163;SDS011;6145;50.192;10.064;2022-07-06T07:43:44;1.85;;;1.75;;
12163;SDS011;6145;50.192;10.064;2022-07-06T07:46:11;1.58;;;1.48;;
12163;SDS011;6145;50.192;10.064;2022-07-06T07:48:38;1.50;;;1.40;;
12163;SDS011;6145;50.192;10.064;2022-07-06T07:51:06;1.60;;;1.50;;
12163;SDS011;6145;50.192;10.064;2022-07-06T07:53:34;1.65;;;1.42;;
12163;SDS011;6145;50.192;10.064;2022-07-06T07:56:01;1.50;;;1.40;;
12163;SDS011;6145;50.192;10.064;2022-07-06T07:58:27;1.35;;;1.25;;
12163;SDS011;6145;50.192;10.064;2022-07-06T08:00:54;2.35;;;1.30;;
12163;SDS011;6145;50.192;10.064;2022-07-06T08:03:21;1.40;;;1.30;;
12163;SDS011;6145;50.192;10.064;2022-07-06T08:05:48;1.67;;;1.58;;
12163;SDS011;6145;50.192;10.064;2022-07-06T08:08:17;1.85;;;1.50;;
12163;SDS011;6145;50.192;10.064;2022-07-06T08:10:44;2.03;;;1.55;;
12163;SDS011;6145;50.192;10.064;2022-07-06T08:13:10;1.95;;;1.42;;
12163;SDS011;6145;50.192;10.064;2022-07-06T08:15:39;1.92;;;1.42;;
12163;SDS011;6145;50.192;10.064;2022-07-06T08:18:06;1.75;;;1.30;;
12163;SDS011;6145;50.192;10.064;2022-07-06T08:20:34;1.42;;;1.33;;
12163;SDS011;6145;50.192;10.064;2022-07-06T08:23:01;1.40;;;1.30;;
12163;SDS011;6145;50.192;10.064;2022-07-06T08:25:29;1.45;;;1.30;;
12163;SDS011;6145;50.192;10.064;2022-07-06T08:27:56;1.50;;;1.40;;
12163;SDS011;6145;50.192;10.064;2022-07-06T08:30:23;2.05;;;1.58;;
12163;SDS011;6145;50.192;10.064;2022-07-06T08:32:50;1.77;;;1.60;;
12163;SDS011;6145;50.192;10.064;2022-07-06T08:35:17;1.58;;;1.48;;
12163;SDS011;6145;50.192;10.064;2022-07-06T08:37:44;2.70;;;1.50;;
12163;SDS011;6145;50.192;10.064;2022-07-06T08:40:11;1.17;;;1.10;;
12163;SDS011;6145;50.192;10.064;2022-07-06T08:42:39;1.58;;;1.33;;
12163;SDS011;6145;50.192;10.064;2022-07-06T08:45:08;1.45;;;1.35;;
12163;SDS011;6145;50.192;10.064;2022-07-06T08:47:36;1.70;;;1.27;;
12163;SDS011;6145;50.192;10.064;2022-07-06T08:50:03;2.85;;;1.58;;
12163;SDS011;6145;50.192;10.064;2022-07-06T08:52:31;2.13;;;1.40;;
12163;SDS011;6145;50.192;10.064;2022-07-06T08:54:58;2.83;;;1.20;;
12163;SDS011;6145;50.192;10.064;2022-07-06T08:57:26;3.58;;;1.95;;
12163;SDS011;6145;50.192;10.064;2022-07-06T08:59:54;1.80;;;1.70;;
12163;SDS011;6145;50.192;10.064;2022-07-06T09:02:22;2.00;;;1.80;;
12163;SDS011;6145;50.192;10.064;2022-07-06T09:04:52;1.85;;;1.70;;
12163;SDS011;6145;50.192;10.064;2022-07-06T09:07:22;1.70;;;1.60;;
12163;SDS011;6145;50.192;10.064;2022-07-06T09:09:52;2.50;;;1.75;;
12163;SDS011;6145;50.192;10.064;2022-07-06T09:12:20;2.00;;;1.80;;
12163;SDS011;6145;50.192;10.064;2022-07-06T09:14:47;1.73;;;1.50;;
12163;SDS011;6145;50.192;10.064;2022-07-06T09:17:15;1.60;;;1.50;;
12163;SDS011;6145;50.192;10.064;2022-07-06T09:19:42;1.80;;;1.60;;
12163;SDS011;6145;50.192;10.064;2022-07-06T09:22:23;1.85;;;1.52;;
12163;SDS011;6145;50.192;10.064;2022-07-06T09:24:53;2.05;;;1.63;;
12163;SDS011;6145;50.192;10.064;2022-07-06T09:27:27;1.88;;;1.67;;
12163;SDS011;6145;50.192;10.064;2022-07-06T09:29:53;1.70;;;1.60;;
12163;SDS011;6145;50.192;10.064;2022-07-06T09:32:21;2.33;;;1.88;;
12163;SDS011;6145;50.192;10.064;2022-07-06T09:34:48;1.67;;;1.40;;
12163;SDS011;6145;50.192;10.064;2022-07-06T09:37:15;2.20;;;1.80;;
12163;SDS011;6145;50.192;10.064;2022-07-06T09:39:43;1.63;;;1.52;;
12163;SDS011;6145;50.192;10.064;2022-07-06T09:42:10;2.30;;;1.50;;
12163;SDS011;6145;50.192;10.064;2022-07-06T09:44:37;1.92;;;1.60;;
12163;SDS011;6145;50.192;10.064;2022-07-06T09:47:06;1.60;;;1.50;;
12163;SDS011;6145;50.192;10.064;2022-07-06T09:49:36;2.22;;;1.55;;
12163;SDS011;6145;50.192;10.064;2022-07-06T09:52:04;1.23;;;1.23;;
12163;SDS011;6145;50.192;10.064;2022-07-06T09:54:33;1.48;;;1.23;;
12163;SDS011;6145;50.192;10.064;2022-07-06T09:57:01;1.48;;;1.30;;
12163;SDS011;6145;50.192;10.064;2022-07-06T09:59:29;1.60;;;1.50;;
12163;SDS011;6145;50.192;10.064;2022-07-06T10:01:58;2.17;;;1.33;;
12163;SDS011;6145;50.192;10.064;2022-07-06T10:04:26;1.42;;;1.33;;
12163;SDS011;6145;50.192;10.064;2022-07-06T10:06:56;1.50;;;1.40;;
12163;SDS011;6145;50.192;10.064;2022-07-06T10:09:24;1.60;;;1.50;;
12163;SDS011;6145;50.192;10.064;2022-07-06T10:11:52;2.28;;;1.67;;
12163;SDS011;6145;50.192;10.064;2022-07-06T10:14:21;3.08;;;1.65;;
12163;SDS011;6145;50.192;10.064;2022-07-06T10:16:48;2.97;;;1.20;;
12163;SDS011;6145;50.192;10.064;2022-07-06T10:19:17;1.40;;;1.27;;
12163;SDS011;6145;50.192;10.064;2022-07-06T10:21:45;1.42;;;1.33;;
12163;SDS011;6145;50.192;10.064;2022-07-06T10:24:13;2.35;;;1.58;;
12163;SDS011;6145;50.192;10.064;2022-07-06T10:26:41;1.85;;;1.30;;
12163;SDS011;6145;50.192;10.064;2022-07-06T10:29:08;2.55;;;1.40;;
12163;SDS011;6145;50.192;10.064;2022-07-06T10:31:36;1.38;;;1.27;;
12163;SDS011;6145;50.192;10.064;2022-07-06T10:34:06;1.75;;;1.30;;
12163;SDS011;6145;50.192;10.064;2022-07-06T10:36:36;1.35;;;1.20;;
12163;SDS011;6145;50.192;10.064;2022-07-06T10:39:04;1.50;;;1.40;;
12163;SDS011;6145;50.192;10.064;2022-07-06T10:41:53;1.70;;;1.50;;
12163;SDS011;6145;50.192;10.064;2022-07-06T10:44:20;1.27;;;1.17;;
12163;SDS011;6145;50.192;10.064;2022-07-06T10:46:51;2.00;;;1.30;;
12163;SDS011;6145;50.192;10.064;2022-07-06T10:49:19;1.58;;;1.30;;
12163;SDS011;6145;50.192;10.064;2022-07-06T10:51:47;1.30;;;1.20;;
12163;SDS011;6145;50.192;10.064;2022-07-06T10:54:15;1.88;;;1.40;;
12163;SDS011;6145;50.192;10.064;2022-07-06T10:56:44;2.45;;;1.50;;
12163;SDS011;6145;50.192;10.064;2022-07-06T10:59:13;1.10;;;1.10;;
12163;SDS011;6145;50.192;10.064;2022-07-06T11:02:10;1.55;;;1.45;;
12163;SDS011;6145;50.192;10.064;2022-07-06T11:04:40;1.88;;;1.50;;
12163;SDS011;6145;50.192;10.064;2022-07-06T11:07:08;1.30;;;1.20;;
12163;SDS011;6145;50.192;10.064;2022-07-06T11:09:36;1.38;;;1.17;;
12163;SDS011;6145;50.192;10.064;2022-07-06T11:12:14;1.25;;;1.15;;
12163;SDS011;6145;50.192;10.064;2022-07-06T11:14:43;1.25;;;1.17;;
12163;SDS011;6145;50.192;10.064;2022-07-06T11:17:12;1.40;;;1.30;;
12163;SDS011;6145;50.192;10.064;2022-07-06T11:19:47;1.40;;;1.30;;
12163;SDS011;6145;50.192;10.064;2022-07-06T11:22:15;1.58;;;1.40;;
12163;SDS011;6145;50.192;10.064;2022-07-06T11:24:43;1.35;;;1.23;;
12163;SDS011;6145;50.192;10.064;2022-07-06T11:27:11;1.90;;;1.15;;
12163;SDS011;6145;50.192;10.064;2022-07-06T11:29:38;1.40;;;1.30;;
12163;SDS011;6145;50.192;10.064;2022-07-06T11:32:06;2.35;;;1.52;;
12163;SDS011;6145;50.192;10.064;2022-07-06T11:34:37;1.83;;;1.52;;
12163;SDS011;6145;50.192;10.064;2022-07-06T11:37:06;2.95;;;1.35;;
12163;SDS011;6145;50.192;10.064;2022-07-06T11:39:34;1.40;;;1.30;;
12163;SDS011;6145;50.192;10.064;2022-07-06T11:42:02;1.63;;;1.50;;
12163;SDS011;6145;50.192;10.064;2022-07-06T11:44:30;1.40;;;1.30;;
12163;SDS011;6145;50.192;10.064;2022-07-06T11:46:57;1.50;;;1.35;;
12163;SDS011;6145;50.192;10.064;2022-07-06T11:49:26;1.33;;;1.23;;
12163;SDS011;6145;50.192;10.064;2022-07-06T11:51:55;1.60;;;1.30;;
12163;SDS011;6145;50.192;10.064;2022-07-06T11:54:23;1.15;;;1.05;;
12163;SDS011;6145;50.192;10.064;2022-07-06T11:56:51;3.40;;;1.55;;
12163;SDS011;6145;50.192;10.064;2022-07-06T11:59:20;2.00;;;1.38;;
12163;SDS011;6145;50.192;10.064;2022-07-06T12:01:48;1.30;;;1.20;;
12163;SDS011;6145;50.192;10.064;2022-07-06T12:04:16;1.60;;;1.45;;
12163;SDS011;6145;50.192;10.064;2022-07-06T12:06:43;1.38;;;1.27;;
12163;SDS011;6145;50.192;10.064;2022-07-06T12:09:12;2.03;;;1.30;;
12163;SDS011;6145;50.192;10.064;2022-07-06T12:11:40;1.33;;;1.30;;
12163;SDS011;6145;50.192;10.064;2022-07-06T12:14:13;1.83;;;1.27;;
12163;SDS011;6145;50.192;10.064;2022-07-06T12:16:42;1.48;;;1.33;;
12163;SDS011;6145;50.192;10.064;2022-07-06T12:19:10;1.30;;;1.20;;
12163;SDS011;6145;50.192;10.064;2022-07-06T12:21:42;1.75;;;1.50;;
12163;SDS011;6145;50.192;10.064;2022-07-06T12:24:10;1.40;;;1.30;;
12163;SDS011;6145;50.192;10.064;2022-07-06T12:26:45;1.50;;;1.40;;
12163;SDS011;6145;50.192;10.064;2022-07-06T12:29:13;2.25;;;1.63;;
12163;SDS011;6145;50.192;10.064;2022-07-06T12:31:41;2.00;;;1.58;;
12163;SDS011;6145;50.192;10.064;2022-07-06T12:34:12;1.52;;;1.42;;
12163;SDS011;6145;50.192;10.064;2022-07-06T12:36:44;1.75;;;1.40;;
12163;SDS011;6145;50.192;10.064;2022-07-06T12:39:11;2.63;;;1.50;;
12163;SDS011;6145;50.192;10.064;2022-07-06T12:41:44;1.83;;;1.55;;
12163;SDS011;6145;50.192;10.064;2022-07-06T12:44:13;1.55;;;1.45;;
12163;SDS011;6145;50.192;10.064;2022-07-06T12:46:42;1.40;;;1.30;;
12163;SDS011;6145;50.192;10.064;2022-07-06T12:49:13;1.33;;;1.23;;
12163;SDS011;6145;50.192;10.064;2022-07-06T12:51:52;2.22;;;1.40;;
12163;SDS011;6145;50.192;10.064;2022-07-06T12:54:20;1.40;;;1.30;;
12163;SDS011;6145;50.192;10.064;2022-07-06T12:56:59;1.63;;;1.52;;
12163;SDS011;6145;50.192;10.064;2022-07-06T12:59:31;1.60;;;1.50;;
12163;SDS011;6145;50.192;10.064;2022-07-06T13:01:59;1.70;;;1.60;;
12163;SDS011;6145;50.192;10.064;2022-07-06T13:04:26;2.10;;;1.40;;
12163;SDS011;6145;50.192;10.064;2022-07-06T13:06:54;1.80;;;1.70;;
12163;SDS011;6145;50.192;10.064;2022-07-06T13:09:21;1.38;;;1.27;;
12163;SDS011;6145;50.192;10.064;2022-07-06T13:11:48;1.30;;;1.20;;
12163;SDS011;6145;50.192;10.064;2022-07-06T13:14:17;2.13;;;1.50;;
12163;SDS011;6145;50.192;10.064;2022-07-06T13:16:44;1.50;;;1.40;;
12163;SDS011;6145;50.192;10.064;2022-07-06T13:19:12;1.20;;;1.20;;
12163;SDS011;6145;50.192;10.064;2022-07-06T13:21:39;2.95;;;1.48;;
12163;SDS011;6145;50.192;10.064;2022-07-06T13:24:06;1.50;;;1.23;;
12163;SDS011;6145;50.192;10.064;2022-07-06T13:26:33;1.23;;;1.13;;
12163;SDS011;6145;50.192;10.064;2022-07-06T13:29:00;1.30;;;1.20;;
12163;SDS011;6145;50.192;10.064;2022-07-06T13:31:28;1.52;;;1.42;;
12163;SDS011;6145;50.192;10.064;2022-07-06T13:33:55;1.90;;;1.40;;
12163;SDS011;6145;50.192;10.064;2022-07-06T13:36:22;1.60;;;1.20;;
12163;SDS011;6145;50.192;10.064;2022-07-06T13:38:49;2.10;;;1.42;;
12163;SDS011;6145;50.192;10.064;2022-07-06T13:41:16;1.30;;;1.20;;
12163;SDS011;6145;50.192;10.064;2022-07-06T13:43:43;1.48;;;1.20;;
12163;SDS011;6145;50.192;10.064;2022-07-06T13:46:10;1.50;;;1.40;;
12163;SDS011;6145;50.192;10.064;2022-07-06T13:48:38;1.40;;;1.30;;
12163;SDS011;6145;50.192;10.064;2022-07-06T13:51:05;1.40;;;1.30;;
12163;SDS011;6145;50.192;10.064;2022-07-06T13:53:31;1.30;;;1.20;;
12163;SDS011;6145;50.192;10.064;2022-07-06T13:55:58;1.20;;;1.10;;
12163;SDS011;6145;50.192;10.064;2022-07-06T13:58:25;1.50;;;1.40;;
12163;SDS011;6145;50.192;10.064;2022-07-06T14:00:53;1.33;;;1.23;;
12163;SDS011;6145;50.192;10.064;2022-07-06T14:03:20;2.47;;;1.30;;
12163;SDS011;6145;50.192;10.064;2022-07-06T14:05:54;1.50;;;1.30;;
12163;SDS011;6145;50.192;10.064;2022-07-06T14:08:20;1.23;;;1.13;;
12163;SDS011;6145;50.192;10.064;2022-07-06T14:10:47;1.23;;;1.10;;
12163;SDS011;6145;50.192;10.064;2022-07-06T14:13:14;1.20;;;1.10;;
12163;SDS011;6145;50.192;10.064;2022-07-06T14:15:41;1.80;;;1.33;;
12163;SDS011;6145;50.192;10.064;2022-07-06T14:18:08;1.38;;;1.27;;
12163;SDS011;6145;50.192;10.064;2022-07-06T14:20:35;1.30;;;1.20;;
12163;SDS011;6145;50.192;10.064;2022-07-06T14:23:03;1.40;;;1.30;;
12163;SDS011;6145;50.192;10.064;2022-07-06T14:25:30;1.10;;;1.10;;
12163;SDS011;6145;50.192;10.064;2022-07-06T14:27:57;2.15;;;1.50;;
12163;SDS011;6145;50.192;10.064;2022-07-06T14:30:24;1.60;;;1.38;;
12163;SDS011;6145;50.192;10.064;2022-07-06T14:32:51;1.42;;;1.25;;
12163;SDS011;6145;50.192;10.064;2022-07-06T14:35:18;1.55;;;1.30;;
12163;SDS011;6145;50.192;10.064;2022-07-06T14:37:45;1.10;;;1.10;;
12163;SDS011;6145;50.192;10.064;2022-07-06T14:40:14;1.30;;;1.20;;
12163;SDS011;6145;50.192;10.064;2022-07-06T14:42:41;1.17;;;1.10;;
12163;SDS011;6145;50.192;10.064;2022-07-06T14:45:08;1.40;;;1.20;;
12163;SDS011;6145;50.192;10.064;2022-07-06T14:47:35;1.20;;;1.10;;
12163;SDS011;6145;50.192;10.064;2022-07-06T14:50:03;3.60;;;1.42;;
12163;SDS011;6145;50.192;10.064;2022-07-06T14:52:30;1.73;;;1.27;;